Terminal Aerodrome Forecast
Issued by NWS Rapid City, SD

Home | Current Version | Previous Version | Text Only | Print | Product List | Glossary Off
Versions: 1 2 3 4 5 6 7 8 9 10 11 12 13 14 15 16 17 18 19

000
FTUS43 KUNR 201135
TAFRAP
TAF
KRAP 201135Z 2012/2112 34006KT P6SM SCT020 BKN060
      TEMPO 2012/2014 6SM -RASN BKN020
     FM201800 36008KT P6SM BKN040
     FM202000 36010KT 2SM -SN OVC015
     FM210000 34008KT 1SM -SN OVC010
     FM210900 34010KT 2SM -SN OVC010=

USA.gov is the U.S. government's official web portal to all federal, state and local government web resources and services.